• Join FlightAware (Why Join?)
  • Login
  • US Flag 
01:46AM EDT


 

Airport Tracker/Info


-or-


 

Live Flight TrackerFlight Track Log ✈ DAL3673 ✈ 19-Apr-2013 ✈ KMSP - KLSE

Flight Track Log - Related Links

Times and Time Zones

All times are in EDT time to prevent confusion due to time zone crossing. See the DAL3673 flight status page for this flight to view local times or setup timezone preferences in your user account.

Time Position Orientation Groundspeed Altitude Reporting Facility
EDT Latitude Longitude Course Direction KTS MPH feet Rate Location/Type
04:22PM 44.8897 -93.2500 119° Southeast 148 170 2,500  Level FAA TRACON SMA TRACON (SMA)
04:22PM 44.8867 -93.2717 259° West 173 199 3,000 2,340 Climbing FAA TRACON SMA TRACON (SMA)
04:23PM 44.8825 -93.2950 256° West 194 223 4,100 3,300 Climbing FAA TRACON SMA TRACON (SMA)
04:23PM 44.8769 -93.3239 255° West 200 230 5,200 2,520 Climbing FAA TRACON SMA TRACON (SMA)
04:23PM 44.8708 -93.3494 251° West 216 249 5,800 2,700 Climbing FAA TRACON SMA TRACON (SMA)
04:24PM 44.8514 -93.3744 222° Southwest 253 291 7,000 2,820 Climbing FAA TRACON SMA TRACON (SMA)
04:24PM 44.8275 -93.3794 188° South 278 320 7,700 2,100 Climbing FAA TRACON SMA TRACON (SMA)
04:24PM 44.8025 -93.3744 172° South 296 341 8,400 2,520 Climbing FAA TRACON SMA TRACON (SMA)
04:25PM 44.6572 -92.7695 139° Southeast  Level Estimated
04:25PM 44.7742 -93.3519 151° Southeast 308 354 9,400  Level FAA TRACON SMA TRACON (SMA)
04:25PM 44.7569 -93.3225 129° Southeast 315 362 10,000 1,380 Climbing FAA TRACON SMA TRACON (SMA)
04:25PM 44.7411 -93.2892 124° Southeast 327 376 10,300 1,020 Climbing FAA TRACON SMA TRACON (SMA)
04:26PM 44.6007 -92.6570 141° Southeast  Level Estimated
04:26PM 44.7244 -93.2542 124° Southeast 345 397 10,700  Level FAA TRACON SMA TRACON (SMA)
04:26PM 44.7028 -93.2072 123° Southeast 368 423 11,000 420 Climbing FAA TRACON SMA TRACON (SMA)
04:26PM 44.6847 -93.1678 123° Southeast 385 443 11,000  Level FAA TRACON SMA TRACON (SMA)
04:27PM 44.5441 -92.5446 119° Southeast  Level Estimated
04:27PM 44.6611 -93.1178 124° Southeast 398 458 11,000  Level FAA TRACON SMA TRACON (SMA)
04:27PM 44.6422 -93.0769 123° Southeast 402 463 11,000  Level FAA TRACON SMA TRACON (SMA)
04:27PM 44.6231 -93.0361 123° Southeast 406 467 11,000  Level FAA TRACON SMA TRACON (SMA)
04:28PM 44.5989 -92.9847 123° Southeast 408 470 11,000  Level FAA TRACON SMA TRACON (SMA)
04:28PM 44.5797 -92.9436 123° Southeast 409 471 11,000  Level FAA TRACON SMA TRACON (SMA)
04:28PM 44.5608 -92.9022 123° Southeast 410 472 11,000  Level FAA TRACON SMA TRACON (SMA)
04:29PM 44.5367 -92.8508 123° Southeast 409 471 11,000  Level FAA TRACON SMA TRACON (SMA)
04:29PM 44.5167 -92.8114 125° Southeast 407 468 11,000  Level FAA TRACON SMA TRACON (SMA)
04:29PM 44.4972 -92.7700 123° Southeast 409 471 11,000  Level FAA TRACON SMA TRACON (SMA)
04:30PM 44.4731 -92.7186 123° Southeast 409 471 11,000  Level FAA TRACON SMA TRACON (SMA)
04:30PM 44.4542 -92.6769 122° Southeast 411 473 11,000  Level FAA TRACON SMA TRACON (SMA)
04:30PM 44.4300 -92.6258 123° Southeast 411 473 11,000  Level FAA TRACON SMA TRACON (SMA)
04:31PM 44.4097 -92.5858 125° Southeast 409 471 11,000  Level FAA TRACON SMA TRACON (SMA)
04:31PM 44.3908 -92.5444 123° Southeast 409 471 11,000  Level FAA TRACON SMA TRACON (SMA)
04:31PM 44.3744 -92.5017 118° Southeast 407 468 11,000  Level FAA TRACON SMA TRACON (SMA)
04:32PM 44.3542 -92.4472 117° Southeast 407 468 11,000  Level FAA TRACON SMA TRACON (SMA)
04:32PM 44.3372 -92.4050 119° Southeast 406 467 11,000  Level FAA TRACON SMA TRACON (SMA)
04:32PM 44.3219 -92.3611 116° Southeast 407 468 11,000  Level FAA TRACON SMA TRACON (SMA)
04:33PM 44.3014 -92.3075 118° Southeast 407 468 11,000  Level FAA TRACON SMA TRACON (SMA)
04:33PM 44.2861 -92.2631 116° Southeast 409 471 11,000 -480 Level FAA TRACON SMA TRACON (SMA)
04:33PM 44.2700 -92.2217 119° Southeast 402 463 10,700 -900 Descending FAA TRACON SMA TRACON (SMA)
04:34PM 44.2553 -92.1817 117° Southeast 385 443 10,400 -660 Descending FAA TRACON SMA TRACON (SMA)
04:34PM 44.2197 -92.1183 128° Southeast 342 394 10,100 -1,140 Descending Minneapolis Center
04:35PM 44.1803 -92.0156 118° Southeast 307 353 8,600 -1,500 Descending Minneapolis Center
04:36PM 44.1386 -91.9081 118° Southeast 295 339 7,100 -1,440 Descending Minneapolis Center
04:37PM 44.0997 -91.8089 119° Southeast 296 341 5,700 -1,500 Descending Minneapolis Center
04:38PM 44.0564 -91.6994 119° Southeast 301 346 4,100 -1,260 Descending Minneapolis Center
04:39PM 44.0042 -91.6117 130° Southeast 298 343 3,100 -540 Descending Minneapolis Center
04:40PM 43.9475 -91.5253 132° Southeast 286 329 3,100  Level Minneapolis Center
04:41PM 43.8978 -91.4442 130° Southeast 281 323 3,100 -120 Level Minneapolis Center
04:43PM 43.8450 -91.3606 131° Southeast 269 310 2,900 -240 Descending Minneapolis Center